createdAt,value
2022-09-12T06:03:07.749Z,11.25
2022-09-12T06:04:07.759Z,11.25
2022-09-12T06:05:07.718Z,11.25
2022-09-12T06:06:07.708Z,11.25
2022-09-12T06:07:07.691Z,11.25
2022-09-12T06:08:07.675Z,11.25
2022-09-12T06:09:07.691Z,11.25
2022-09-12T06:10:07.647Z,11.25
2022-09-12T06:11:07.631Z,11.25
2022-09-12T06:12:07.651Z,11.25
2022-09-12T06:13:07.602Z,11.25
2022-09-12T06:14:07.593Z,11.25
2022-09-12T06:15:07.577Z,11.25
2022-09-12T06:16:07.565Z,11.25
2022-09-12T06:17:07.575Z,11.25
2022-09-12T06:18:07.539Z,11.25
2022-09-12T06:19:07.529Z,11.25
2022-09-12T06:20:07.508Z,11.25
2022-09-12T06:21:07.500Z,11.25
2022-09-12T06:22:07.505Z,11.25
2022-09-12T06:23:07.468Z,11.25
2022-09-12T06:24:07.455Z,11.25
2022-09-12T06:25:07.449Z,11.25
2022-09-12T06:26:07.424Z,11.25
2022-09-12T06:27:07.455Z,11.25
2022-09-12T06:28:07.403Z,11.25
2022-09-12T06:29:07.385Z,11.25
2022-09-12T06:30:07.371Z,11.25
2022-09-12T06:31:07.445Z,11.25
2022-09-12T06:32:07.343Z,11.25
2022-09-12T06:33:07.390Z,11.25
2022-09-12T06:34:07.328Z,11.25
2022-09-12T06:35:07.309Z,11.25
2022-09-12T06:36:12.076Z,11.25
2022-09-12T06:37:07.290Z,11.25
2022-09-12T06:38:07.262Z,11.25
2022-09-12T06:39:07.257Z,11.25
2022-09-12T06:40:07.270Z,11.25
2022-09-12T06:41:07.223Z,11.25
2022-09-12T06:42:07.208Z,11.25
2022-09-12T06:43:07.189Z,11.25
2022-09-12T06:44:07.211Z,16.88
2022-09-12T06:45:07.165Z,16.88
2022-09-12T06:46:07.191Z,16.88
2022-09-12T06:47:07.155Z,16.88
2022-09-12T06:48:07.126Z,16.88
2022-09-12T06:49:07.137Z,16.88
2022-09-12T06:50:07.380Z,16.88
2022-09-12T06:51:07.086Z,16.88
2022-09-12T06:52:07.073Z,16.88
2022-09-12T06:53:07.060Z,16.88
2022-09-12T06:54:07.045Z,16.88
2022-09-12T06:55:07.039Z,16.88
2022-09-12T06:56:07.146Z,16.88
2022-09-12T06:57:06.999Z,16.88
2022-09-12T06:58:06.995Z,16.88
2022-09-12T06:59:06.976Z,22.50
2022-09-12T07:00:06.964Z,16.88
2022-09-12T07:01:06.980Z,22.50
2022-09-12T07:02:06.990Z,22.50
2022-09-12T07:03:06.920Z,16.88
2022-09-12T07:04:06.922Z,16.88
2022-09-12T07:05:06.892Z,16.88
2022-09-12T07:06:06.908Z,22.50
2022-09-12T07:07:06.924Z,16.88
2022-09-12T07:08:06.855Z,22.50
2022-09-12T07:09:06.837Z,22.50
2022-09-12T07:10:06.989Z,22.50
2022-09-12T07:11:06.811Z,28.13
2022-09-12T07:12:06.934Z,28.13
2022-09-12T07:13:06.785Z,22.50
2022-09-12T07:14:06.778Z,22.50
2022-09-12T07:15:06.764Z,22.50
2022-09-12T07:16:06.745Z,28.13
2022-09-12T07:17:06.958Z,28.13
2022-09-12T07:18:06.721Z,33.75
2022-09-12T07:19:06.704Z,28.13
2022-09-12T07:20:06.699Z,28.13
2022-09-12T07:21:06.676Z,22.50
2022-09-12T07:22:06.665Z,33.75
2022-09-12T07:23:06.709Z,28.13
2022-09-12T07:24:06.660Z,28.13
2022-09-12T07:25:06.628Z,22.50
2022-09-12T07:26:06.616Z,28.13
2022-09-12T07:27:06.622Z,28.13
2022-09-12T07:28:06.616Z,33.75
2022-09-12T07:29:35.438Z,22.50
2022-09-12T07:30:06.586Z,28.13
2022-09-12T07:31:06.604Z,28.13
2022-09-12T07:32:06.532Z,28.13
2022-09-12T07:33:06.517Z,28.13
2022-09-12T07:34:06.646Z,28.13
2022-09-12T07:35:06.499Z,28.13
2022-09-12T07:36:06.483Z,33.75
2022-09-12T07:37:06.491Z,33.75
2022-09-12T07:38:06.453Z,28.13
2022-09-12T07:39:06.449Z,28.13
2022-09-12T07:40:06.513Z,28.13
2022-09-12T07:41:06.412Z,28.13
2022-09-12T07:42:06.402Z,28.13
2022-09-12T07:43:06.384Z,28.13
2022-09-12T07:44:06.375Z,28.13
2022-09-12T07:45:06.391Z,28.13
2022-09-12T07:46:06.380Z,28.13
2022-09-12T07:47:06.359Z,33.75
2022-09-12T07:48:06.322Z,33.75
2022-09-12T07:49:07.530Z,33.75
2022-09-12T07:50:06.302Z,33.75
2022-09-12T07:51:06.285Z,39.38
2022-09-12T07:52:06.284Z,39.38
2022-09-12T07:53:06.254Z,39.38
2022-09-12T07:54:06.239Z,39.38
2022-09-12T07:55:06.239Z,45.00
2022-09-12T07:56:06.221Z,56.25
2022-09-12T07:57:06.202Z,67.50
2022-09-12T07:58:06.217Z,67.50
2022-09-12T07:59:06.240Z,45.00
2022-09-12T08:00:06.166Z,39.38
2022-09-12T08:01:06.202Z,50.63
2022-09-12T08:02:06.226Z,56.25
2022-09-12T08:03:06.146Z,45.00
2022-09-12T08:04:06.117Z,39.38
2022-09-12T08:05:06.127Z,39.38
2022-09-12T08:06:06.097Z,39.38
2022-09-12T08:07:06.076Z,33.75
2022-09-12T08:08:06.075Z,33.75
2022-09-12T08:09:06.057Z,33.75
2022-09-12T08:10:06.035Z,33.75
2022-09-12T08:11:06.074Z,33.75
2022-09-12T08:12:06.013Z,33.75
2022-09-12T08:13:06.004Z,33.75
2022-09-12T08:14:05.993Z,33.75
2022-09-12T08:15:05.978Z,33.75
2022-09-12T08:16:06.057Z,33.75
2022-09-12T08:17:05.975Z,33.75
2022-09-12T08:18:05.955Z,33.75
2022-09-12T08:19:05.924Z,39.38
2022-09-12T08:20:05.908Z,39.38
2022-09-12T08:21:05.923Z,39.38
2022-09-12T08:22:05.918Z,39.38
2022-09-12T08:23:05.877Z,39.38
2022-09-12T08:24:05.884Z,39.38
2022-09-12T08:25:05.848Z,39.38
2022-09-12T08:26:06.462Z,39.38
2022-09-12T08:27:05.951Z,39.38
2022-09-12T08:28:05.811Z,39.38
2022-09-12T08:29:05.801Z,39.38
2022-09-12T08:30:05.786Z,39.38
2022-09-12T08:31:05.869Z,39.38
2022-09-12T08:32:05.953Z,39.38
2022-09-12T08:33:05.749Z,39.38
2022-09-12T08:34:05.767Z,39.38
2022-09-12T08:35:05.728Z,39.38
2022-09-12T08:36:05.710Z,39.38
2022-09-12T08:37:05.713Z,39.38
2022-09-12T08:38:05.724Z,39.38
2022-09-12T08:39:05.687Z,39.38
2022-09-12T08:40:05.717Z,39.38
2022-09-12T08:41:05.653Z,39.38
2022-09-12T08:42:05.692Z,39.38
2022-09-12T08:43:05.659Z,39.38
2022-09-12T08:44:05.609Z,39.38
2022-09-12T08:45:05.599Z,39.38
2022-09-12T08:46:05.630Z,39.38
2022-09-12T08:47:05.617Z,39.38
2022-09-12T08:48:05.569Z,39.38
2022-09-12T08:49:05.551Z,39.38
2022-09-12T08:50:05.541Z,39.38
2022-09-12T08:51:05.543Z,39.38
2022-09-12T08:52:05.556Z,39.38
2022-09-12T08:53:05.518Z,39.38
2022-09-12T08:54:05.490Z,39.38
2022-09-12T08:55:05.481Z,39.38
2022-09-12T08:56:05.483Z,39.38
2022-09-12T08:57:05.590Z,45.00
2022-09-12T08:58:05.440Z,45.00
2022-09-12T08:59:05.444Z,45.00
2022-09-12T09:00:05.429Z,45.00
2022-09-12T09:01:05.454Z,45.00
2022-09-12T09:02:05.517Z,50.63
2022-09-12T09:03:05.398Z,50.63
2022-09-12T09:04:05.369Z,50.63
2022-09-12T09:05:05.358Z,56.25
2022-09-12T09:06:05.344Z,50.63
2022-09-12T09:07:05.337Z,50.63
2022-09-12T09:08:05.322Z,50.63
2022-09-12T09:09:05.308Z,50.63
2022-09-12T09:10:05.313Z,50.63
2022-09-12T09:11:05.329Z,50.63
2022-09-12T09:12:05.319Z,50.63
2022-09-12T09:13:05.319Z,50.63
2022-09-12T09:14:05.625Z,50.63
2022-09-12T09:15:05.250Z,50.63
2022-09-12T09:16:05.324Z,50.63
2022-09-12T09:17:05.222Z,50.63
2022-09-12T09:18:05.202Z,50.63
2022-09-12T09:19:05.223Z,50.63
2022-09-12T09:20:05.183Z,50.63
2022-09-12T09:21:05.174Z,50.63
2022-09-12T09:22:05.155Z,50.63
2022-09-12T09:23:05.192Z,50.63
2022-09-12T09:24:05.198Z,50.63
2022-09-12T09:25:05.132Z,50.63
2022-09-12T09:26:05.129Z,50.63
2022-09-12T09:27:14.320Z,50.63
2022-09-12T09:28:05.086Z,50.63
2022-09-12T09:29:05.094Z,50.63
2022-09-12T09:30:05.093Z,50.63
2022-09-12T09:31:05.130Z,50.63
2022-09-12T09:32:05.045Z,50.63
2022-09-12T09:33:05.033Z,50.63
2022-09-12T09:34:05.045Z,50.63
2022-09-12T09:35:05.010Z,50.63
2022-09-12T09:36:05.015Z,50.63
2022-09-12T09:37:04.987Z,50.63
2022-09-12T09:38:04.970Z,50.63
2022-09-12T09:39:05.009Z,45.00
2022-09-12T09:40:05.025Z,45.00
2022-09-12T09:41:05.040Z,45.00
2022-09-12T09:42:04.927Z,45.00
2022-09-12T09:43:04.934Z,39.38
2022-09-12T09:44:05.029Z,39.38
2022-09-12T09:45:04.938Z,39.38
2022-09-12T09:46:04.956Z,39.38
2022-09-12T09:47:04.875Z,39.38
2022-09-12T09:48:04.856Z,39.38
2022-09-12T09:49:04.860Z,39.38
2022-09-12T09:50:04.854Z,39.38
2022-09-12T09:51:04.829Z,39.38
2022-09-12T09:52:04.814Z,39.38
2022-09-12T09:53:04.805Z,39.38
2022-09-12T09:54:04.793Z,39.38
2022-09-12T09:55:04.781Z,45.00
2022-09-12T09:56:04.797Z,45.00
2022-09-12T09:57:04.946Z,45.00
2022-09-12T09:58:04.799Z,45.00
2022-09-12T09:59:04.784Z,45.00
2022-09-12T10:00:04.722Z,45.00
2022-09-12T10:01:04.788Z,45.00
2022-09-12T10:02:04.798Z,45.00
2022-09-12T10:03:04.865Z,50.63
2022-09-12T10:04:04.679Z,50.63
2022-09-12T10:05:04.668Z,50.63
2022-09-12T10:06:04.651Z,50.63
2022-09-12T10:07:04.657Z,50.63
2022-09-12T10:08:04.653Z,45.00
2022-09-12T10:09:04.663Z,45.00
2022-09-12T10:10:04.612Z,39.38
2022-09-12T10:11:04.602Z,39.38
2022-09-12T10:12:04.609Z,39.38
2022-09-12T10:13:04.605Z,39.38
2022-09-12T10:14:04.572Z,39.38
2022-09-12T10:15:04.577Z,39.38
2022-09-12T10:16:04.594Z,39.38
2022-09-12T10:17:04.534Z,39.38
2022-09-12T10:18:04.522Z,39.38
2022-09-12T10:19:04.557Z,39.38
2022-09-12T10:20:20.929Z,39.38
2022-09-12T10:21:04.491Z,39.38
2022-09-12T10:22:04.490Z,39.38
2022-09-12T10:23:04.479Z,39.38
2022-09-12T10:24:04.504Z,45.00
2022-09-12T10:25:04.473Z,45.00
2022-09-12T10:26:04.438Z,45.00
2022-09-12T10:27:04.426Z,50.63
2022-09-12T10:28:04.413Z,50.63
2022-09-12T10:29:04.419Z,56.25
2022-09-12T10:30:04.417Z,61.88
2022-09-12T10:31:04.442Z,61.88
2022-09-12T10:32:04.371Z,56.25
2022-09-12T10:33:04.359Z,56.25
2022-09-12T10:34:04.355Z,56.25
2022-09-12T10:35:04.541Z,56.25
2022-09-12T10:36:04.338Z,56.25
2022-09-12T10:37:04.318Z,56.25
2022-09-12T10:38:04.318Z,56.25
2022-09-12T10:39:04.311Z,56.25
2022-09-12T10:40:04.329Z,56.25
2022-09-12T10:41:04.279Z,56.25
2022-09-12T10:42:04.278Z,50.63
2022-09-12T10:43:04.255Z,45.00
2022-09-12T10:44:04.244Z,45.00
2022-09-12T10:45:04.266Z,50.63
2022-09-12T10:46:04.264Z,50.63
2022-09-12T10:47:04.223Z,56.25
2022-09-12T10:48:07.506Z,61.88
2022-09-12T10:49:04.188Z,61.88
2022-09-12T10:50:04.191Z,56.25
2022-09-12T10:51:04.177Z,56.25
2022-09-12T10:52:04.160Z,56.25
2022-09-12T10:53:04.217Z,56.25
2022-09-12T10:54:04.133Z,56.25
2022-09-12T10:55:04.126Z,56.25
2022-09-12T10:56:04.128Z,56.25
2022-09-12T10:57:04.109Z,56.25
2022-09-12T10:58:04.132Z,56.25
2022-09-12T10:59:04.086Z,56.25
2022-09-12T11:00:04.076Z,56.25
2022-09-12T11:01:04.098Z,50.63
2022-09-12T11:02:04.141Z,50.63
2022-09-12T11:03:04.075Z,56.25
2022-09-12T11:04:04.032Z,56.25
2022-09-12T11:05:04.029Z,50.63
2022-09-12T11:06:04.013Z,50.63
2022-09-12T11:07:04.013Z,50.63
2022-09-12T11:08:04.008Z,50.63
2022-09-12T11:09:03.996Z,45.00
2022-09-12T11:10:04.027Z,50.63
2022-09-12T11:11:03.965Z,50.63
2022-09-12T11:12:03.951Z,50.63
2022-09-12T11:13:03.948Z,50.63
2022-09-12T11:14:03.930Z,50.63
2022-09-12T11:15:03.923Z,50.63
2022-09-12T11:16:03.962Z,50.63
2022-09-12T11:17:03.903Z,50.63
2022-09-12T11:18:03.896Z,56.25
2022-09-12T11:19:03.896Z,61.88
2022-09-12T11:20:03.895Z,61.88
2022-09-12T11:21:03.882Z,56.25
2022-09-12T11:22:03.855Z,50.63
2022-09-12T11:23:03.887Z,45.00
2022-09-12T11:24:03.832Z,50.63
2022-09-12T11:25:03.826Z,50.63
2022-09-12T11:26:03.823Z,50.63
2022-09-12T11:27:03.800Z,50.63
2022-09-12T11:28:03.918Z,50.63
2022-09-12T11:29:03.778Z,56.25
2022-09-12T11:30:03.766Z,61.88
2022-09-12T11:31:03.877Z,61.88
2022-09-12T11:32:03.749Z,61.88
2022-09-12T11:33:03.739Z,56.25
2022-09-12T11:34:03.888Z,50.63
2022-09-12T11:35:03.722Z,45.00
2022-09-12T11:36:03.720Z,45.00
2022-09-12T11:37:07.431Z,39.38
2022-09-12T11:38:03.696Z,39.38
2022-09-12T11:39:03.696Z,39.38
2022-09-12T11:40:03.759Z,39.38
2022-09-12T11:41:03.663Z,39.38
2022-09-12T11:42:03.651Z,39.38
2022-09-12T11:43:03.648Z,39.38
2022-09-12T11:44:03.631Z,45.00
2022-09-12T11:45:03.674Z,39.38
2022-09-12T11:46:03.660Z,39.38
2022-09-12T11:47:03.612Z,33.75
2022-09-12T11:48:03.589Z,33.75
2022-09-12T11:49:03.584Z,33.75
2022-09-12T11:50:03.570Z,33.75
2022-09-12T11:51:03.728Z,28.13
2022-09-12T11:52:03.554Z,28.13
2022-09-12T11:53:03.540Z,28.13
2022-09-12T11:54:03.531Z,33.75
2022-09-12T11:55:03.524Z,33.75
2022-09-12T11:56:03.510Z,33.75
2022-09-12T11:57:03.525Z,33.75
2022-09-12T11:58:03.489Z,28.13
2022-09-12T11:59:03.491Z,28.13
2022-09-12T12:00:03.470Z,28.13
2022-09-12T12:01:03.587Z,28.13
2022-09-12T12:02:03.492Z,33.75
2022-09-12T12:03:03.444Z,28.13
2022-09-12T12:04:03.486Z,33.75
2022-09-12T12:05:03.437Z,33.75
2022-09-12T12:06:03.416Z,33.75
2022-09-12T12:07:03.414Z,28.13
2022-09-12T12:08:03.406Z,33.75
2022-09-12T12:09:03.383Z,33.75
2022-09-12T12:10:03.386Z,28.13
2022-09-12T12:11:03.363Z,28.13
2022-09-12T12:12:03.362Z,33.75
2022-09-12T12:13:03.367Z,39.38
2022-09-12T12:14:03.334Z,39.38
2022-09-12T12:15:03.327Z,39.38
2022-09-12T12:16:03.465Z,33.75
2022-09-12T12:17:03.469Z,33.75
2022-09-12T12:18:03.299Z,33.75
2022-09-12T12:19:06.382Z,28.13
2022-09-12T12:20:07.393Z,33.75
2022-09-12T12:21:03.266Z,33.75
2022-09-12T12:22:03.255Z,33.75
2022-09-12T12:23:03.249Z,33.75
2022-09-12T12:24:03.238Z,33.75
2022-09-12T12:25:03.245Z,33.75
2022-09-12T12:26:03.246Z,33.75
2022-09-12T12:27:03.209Z,33.75
2022-09-12T12:28:03.230Z,33.75
2022-09-12T12:29:03.190Z,33.75
2022-09-12T12:30:03.190Z,33.75
2022-09-12T12:31:03.291Z,33.75
2022-09-12T12:32:03.164Z,33.75
2022-09-12T12:33:03.294Z,33.75
2022-09-12T12:34:03.140Z,33.75
2022-09-12T12:35:03.127Z,33.75
2022-09-12T12:36:03.121Z,33.75
2022-09-12T12:37:07.210Z,33.75
2022-09-12T12:38:03.103Z,33.75
2022-09-12T12:39:03.091Z,33.75
2022-09-12T12:40:03.208Z,33.75
2022-09-12T12:41:03.073Z,33.75
2022-09-12T12:42:03.090Z,33.75
2022-09-12T12:43:03.074Z,33.75
2022-09-12T12:44:03.049Z,33.75
2022-09-12T12:45:03.071Z,33.75
2022-09-12T12:46:03.130Z,33.75
2022-09-12T12:47:03.014Z,33.75
2022-09-12T12:48:07.604Z,33.75
2022-09-12T12:49:03.002Z,33.75
2022-09-12T12:50:03.013Z,33.75
2022-09-12T12:51:02.975Z,33.75
2022-09-12T12:52:02.971Z,33.75
2022-09-12T12:53:02.958Z,33.75
2022-09-12T12:54:02.954Z,33.75
2022-09-12T12:55:02.945Z,33.75
2022-09-12T12:56:02.931Z,33.75
2022-09-12T12:57:02.925Z,33.75
2022-09-12T12:58:02.913Z,33.75
2022-09-12T12:59:02.904Z,39.38
2022-09-12T13:00:02.895Z,39.38
2022-09-12T13:01:02.893Z,39.38
2022-09-12T13:02:02.927Z,39.38
2022-09-12T13:03:02.914Z,39.38
2022-09-12T13:04:02.858Z,33.75
2022-09-12T13:05:02.852Z,33.75
2022-09-12T13:06:02.840Z,33.75
2022-09-12T13:07:07.754Z,33.75
2022-09-12T13:08:02.849Z,33.75
2022-09-12T13:09:02.813Z,33.75
2022-09-12T13:10:02.816Z,33.75
2022-09-12T13:11:02.807Z,33.75
2022-09-12T13:12:02.785Z,39.38
2022-09-12T13:13:02.843Z,39.38
2022-09-12T13:14:02.767Z,39.38
2022-09-12T13:15:02.782Z,45.00
2022-09-12T13:16:02.801Z,45.00
2022-09-12T13:17:02.738Z,45.00
2022-09-12T13:18:02.754Z,39.38
2022-09-12T13:19:02.720Z,39.38
2022-09-12T13:20:26.050Z,39.38
2022-09-12T13:21:02.705Z,39.38
2022-09-12T13:22:02.701Z,39.38
2022-09-12T13:23:02.743Z,39.38
2022-09-12T13:24:02.682Z,39.38
2022-09-12T13:25:02.678Z,39.38
2022-09-12T13:26:02.656Z,39.38
2022-09-12T13:27:02.663Z,39.38
2022-09-12T13:28:02.663Z,39.38
2022-09-12T13:29:02.653Z,39.38
2022-09-12T13:30:02.624Z,39.38
2022-09-12T13:31:02.651Z,39.38
2022-09-12T13:32:02.604Z,39.38
2022-09-12T13:33:02.599Z,39.38
2022-09-12T13:34:02.616Z,39.38
2022-09-12T13:35:02.578Z,39.38
2022-09-12T13:36:02.567Z,39.38
2022-09-12T13:37:02.559Z,45.00
2022-09-12T13:38:02.565Z,45.00
2022-09-12T13:39:02.569Z,45.00
2022-09-12T13:40:02.554Z,39.38
2022-09-12T13:41:02.520Z,45.00
2022-09-12T13:42:02.523Z,50.63
2022-09-12T13:43:02.505Z,61.88
2022-09-12T13:44:02.501Z,50.63
2022-09-12T13:45:02.631Z,50.63
2022-09-12T13:46:02.521Z,50.63
2022-09-12T13:47:02.475Z,50.63
2022-09-12T13:48:02.465Z,50.63
2022-09-12T13:49:02.452Z,45.00
2022-09-12T13:50:02.446Z,45.00
2022-09-12T13:51:02.447Z,45.00
2022-09-12T13:52:02.436Z,45.00
2022-09-12T13:53:02.420Z,50.63
2022-09-12T13:54:02.421Z,45.00
2022-09-12T13:55:02.434Z,50.63
2022-09-12T13:56:02.403Z,50.63
2022-09-12T13:57:02.387Z,50.63
2022-09-12T13:58:02.381Z,33.75
2022-09-12T13:59:02.386Z,33.75
2022-09-12T14:00:02.358Z,33.75
2022-09-12T14:01:02.373Z,67.50
2022-09-12T14:02:02.408Z,61.88
2022-09-12T14:03:02.346Z,61.88
2022-09-12T14:04:02.328Z,56.25
2022-09-12T14:05:02.323Z,61.88
2022-09-12T14:06:02.355Z,56.25
2022-09-12T14:07:02.304Z,50.63
2022-09-12T14:08:02.330Z,50.63
2022-09-12T14:09:02.283Z,61.88
2022-09-12T14:10:02.285Z,73.13
2022-09-12T14:11:02.265Z,84.38
2022-09-12T14:12:02.268Z,90.00
2022-09-12T14:13:02.287Z,95.63
2022-09-12T14:14:02.282Z,101.25
2022-09-12T14:15:02.298Z,56.25
2022-09-12T14:16:02.281Z,106.88
2022-09-12T14:17:02.221Z,61.88
2022-09-12T14:18:02.215Z,135.00
2022-09-12T14:19:02.211Z,146.25
2022-09-12T14:20:02.214Z,123.75
2022-09-12T14:21:02.189Z,123.75
2022-09-12T14:22:02.181Z,39.38
2022-09-12T14:23:02.172Z,50.63
2022-09-12T14:24:02.407Z,118.13
2022-09-12T14:25:02.164Z,106.88
2022-09-12T14:26:02.208Z,39.38
2022-09-12T14:27:02.160Z,135.00
2022-09-12T14:28:02.141Z,95.63
2022-09-12T14:29:02.176Z,90.00
2022-09-12T14:30:02.123Z,78.75
2022-09-12T14:31:02.183Z,67.50
2022-09-12T14:32:02.118Z,67.50
2022-09-12T14:33:02.142Z,67.50
2022-09-12T14:34:02.126Z,78.75
2022-09-12T14:35:02.086Z,67.50
2022-09-12T14:36:02.081Z,112.50
2022-09-12T14:37:02.074Z,118.13
2022-09-12T14:38:02.069Z,33.75
2022-09-12T14:39:02.086Z,84.38
2022-09-12T14:40:02.179Z,33.75
2022-09-12T14:41:02.081Z,33.75
2022-09-12T14:42:02.036Z,33.75
2022-09-12T14:43:02.058Z,39.38
2022-09-12T14:44:02.155Z,101.25
2022-09-12T14:45:02.011Z,140.63
2022-09-12T14:46:02.082Z,151.88
2022-09-12T14:47:02.042Z,168.75
2022-09-12T14:48:01.994Z,168.75
2022-09-12T14:49:01.999Z,135.00
2022-09-12T14:50:02.007Z,129.38
2022-09-12T14:51:01.996Z,129.38
2022-09-12T14:52:02.093Z,118.13
2022-09-12T14:53:01.981Z,95.63
2022-09-12T14:54:01.951Z,84.38
2022-09-12T14:55:01.940Z,61.88
2022-09-12T14:56:02.073Z,78.75
2022-09-12T14:57:01.927Z,157.50
2022-09-12T14:58:01.918Z,157.50
2022-09-12T14:59:02.009Z,157.50
2022-09-12T15:00:01.947Z,146.25
2022-09-12T15:01:01.948Z,106.88
2022-09-12T15:02:01.923Z,123.75
2022-09-12T15:03:01.907Z,129.38
2022-09-12T15:04:01.912Z,118.13
2022-09-12T15:05:01.879Z,112.50
2022-09-12T15:06:01.870Z,84.38
2022-09-12T15:07:01.885Z,84.38
2022-09-12T15:08:01.895Z,106.88
2022-09-12T15:09:02.034Z,112.50
2022-09-12T15:10:01.915Z,112.50
2022-09-12T15:11:01.837Z,112.50
2022-09-12T15:12:01.853Z,112.50
2022-09-12T15:13:01.828Z,118.13
2022-09-12T15:14:01.838Z,118.13
2022-09-12T15:15:01.798Z,118.13
2022-09-12T15:16:01.828Z,106.88
2022-09-12T15:17:01.782Z,106.88
2022-09-12T15:18:06.246Z,112.50
2022-09-12T15:19:01.771Z,123.75
2022-09-12T15:20:01.868Z,118.13
2022-09-12T15:21:01.760Z,106.88
2022-09-12T15:22:01.779Z,95.63
2022-09-12T15:23:01.767Z,95.63
2022-09-12T15:24:01.750Z,101.25
2022-09-12T15:25:01.728Z,101.25
2022-09-12T15:26:01.756Z,84.38
2022-09-12T15:27:01.714Z,78.75
2022-09-12T15:28:01.710Z,78.75
2022-09-12T15:29:01.699Z,73.13
2022-09-12T15:30:01.693Z,78.75
2022-09-12T15:31:01.760Z,101.25
2022-09-12T15:32:01.712Z,90.00
2022-09-12T15:33:01.680Z,73.13
2022-09-12T15:34:01.663Z,61.88
2022-09-12T15:35:01.661Z,50.63
2022-09-12T15:36:01.653Z,45.00
2022-09-12T15:37:01.670Z,39.38
2022-09-12T15:38:01.634Z,39.38
2022-09-12T15:39:01.630Z,39.38
2022-09-12T15:40:01.709Z,33.75
2022-09-12T15:41:01.612Z,33.75
2022-09-12T15:42:01.689Z,33.75
2022-09-12T15:43:01.629Z,33.75
2022-09-12T15:44:01.599Z,33.75
2022-09-12T15:45:02.722Z,33.75
2022-09-12T15:46:01.654Z,39.38
2022-09-12T15:47:01.687Z,33.75
2022-09-12T15:48:01.599Z,33.75
2022-09-12T15:49:01.554Z,33.75
2022-09-12T15:50:01.549Z,33.75
2022-09-12T15:51:01.536Z,33.75
2022-09-12T15:52:01.533Z,33.75
2022-09-12T15:53:01.541Z,33.75
2022-09-12T15:54:01.514Z,33.75
2022-09-12T15:55:01.506Z,33.75
2022-09-12T15:56:01.521Z,33.75
2022-09-12T15:57:01.491Z,28.13
2022-09-12T15:58:06.361Z,28.13
2022-09-12T15:59:01.471Z,28.13
2022-09-12T16:00:01.466Z,28.13
2022-09-12T16:01:01.597Z,28.13
2022-09-12T16:02:01.535Z,33.75
2022-09-12T16:03:01.533Z,39.38
2022-09-12T16:04:01.435Z,33.75
2022-09-12T16:05:01.428Z,33.75
2022-09-12T16:06:01.415Z,28.13
2022-09-12T16:07:01.411Z,28.13
2022-09-12T16:08:01.406Z,28.13
2022-09-12T16:09:01.394Z,28.13
2022-09-12T16:10:01.385Z,28.13
2022-09-12T16:11:01.381Z,28.13
2022-09-12T16:12:01.378Z,28.13
2022-09-12T16:13:01.359Z,28.13
2022-09-12T16:14:01.357Z,22.50
2022-09-12T16:15:01.344Z,22.50
2022-09-12T16:16:01.446Z,22.50
2022-09-12T16:17:01.328Z,28.13
2022-09-12T16:18:01.479Z,22.50
2022-09-12T16:19:01.313Z,22.50
2022-09-12T16:20:01.309Z,22.50
2022-09-12T16:21:01.294Z,22.50
2022-09-12T16:22:01.287Z,22.50
2022-09-12T16:23:01.276Z,22.50
2022-09-12T16:24:01.276Z,22.50
2022-09-12T16:25:01.264Z,16.88
2022-09-12T16:26:01.262Z,16.88
2022-09-12T16:27:01.564Z,16.88
2022-09-12T16:28:01.297Z,16.88
2022-09-12T16:29:01.231Z,16.88
2022-09-12T16:30:01.224Z,16.88
2022-09-12T16:31:01.253Z,16.88
2022-09-12T16:32:01.204Z,16.88
2022-09-12T16:33:01.198Z,16.88
2022-09-12T16:34:01.185Z,16.88
2022-09-12T16:35:01.179Z,16.88
2022-09-12T16:36:01.185Z,16.88
2022-09-12T16:37:01.162Z,16.88
2022-09-12T16:38:01.194Z,16.88
2022-09-12T16:39:01.152Z,16.88
2022-09-12T16:40:01.169Z,11.25
2022-09-12T16:41:01.126Z,11.25
2022-09-12T16:42:01.119Z,11.25
2022-09-12T16:43:01.183Z,11.25
2022-09-12T16:44:01.113Z,11.25
2022-09-12T16:45:01.095Z,11.25
2022-09-12T16:46:01.109Z,11.25
2022-09-12T16:47:01.074Z,11.25
2022-09-12T16:48:01.099Z,11.25
2022-09-12T16:49:01.083Z,11.25
2022-09-12T16:50:01.047Z,16.88
2022-09-12T16:51:01.038Z,16.88
2022-09-12T16:52:01.032Z,11.25
2022-09-12T16:53:01.021Z,11.25
2022-09-12T16:54:01.015Z,11.25
2022-09-12T16:55:01.004Z,11.25
2022-09-12T16:56:00.995Z,11.25
2022-09-12T16:57:01.016Z,11.25
2022-09-12T16:58:01.006Z,11.25
2022-09-12T16:59:01.002Z,11.25
2022-09-12T17:00:00.960Z,11.25
2022-09-12T17:01:00.961Z,11.25
2022-09-12T17:02:01.000Z,11.25
2022-09-12T17:03:00.999Z,11.25
2022-09-12T17:04:00.923Z,11.25
2022-09-12T17:05:00.947Z,11.25
2022-09-12T17:06:00.933Z,11.25
2022-09-12T17:07:00.899Z,11.25
2022-09-12T17:08:00.888Z,11.25
2022-09-12T17:09:00.880Z,5.63
2022-09-12T17:10:00.871Z,5.63
2022-09-12T17:11:00.889Z,5.63
2022-09-12T17:12:00.856Z,5.63
2022-09-12T17:13:00.848Z,5.63
2022-09-12T17:14:04.892Z,5.63
2022-09-12T17:15:00.898Z,5.63
2022-09-12T17:16:00.877Z,5.63
2022-09-12T17:17:00.813Z,5.63
2022-09-12T17:18:00.796Z,5.63
2022-09-12T17:19:00.803Z,5.63
2022-09-12T17:20:00.780Z,5.63
2022-09-12T17:21:00.776Z,5.63
2022-09-12T17:22:00.765Z,5.63
2022-09-12T17:23:00.757Z,5.63
2022-09-12T17:24:00.746Z,5.63
2022-09-12T17:25:00.736Z,5.63
2022-09-12T17:26:00.726Z,5.63
2022-09-12T17:27:00.744Z,5.63
2022-09-12T17:28:00.708Z,5.63
2022-09-12T17:29:00.700Z,5.63
2022-09-12T17:30:00.697Z,0.00
2022-09-12T17:31:00.734Z,0.00
2022-09-12T17:32:00.671Z,0.00
2022-09-12T17:33:00.693Z,0.00
2022-09-12T17:34:00.660Z,0.00
2022-09-12T17:35:00.661Z,0.00
2022-09-12T17:36:00.638Z,0.00
2022-09-12T17:37:00.658Z,0.00
2022-09-12T17:38:00.618Z,0.00
2022-09-12T17:39:00.655Z,0.00
2022-09-12T17:40:00.623Z,0.00
2022-09-12T17:41:00.637Z,0.00
2022-09-12T17:42:00.579Z,0.00
2022-09-12T17:43:00.575Z,0.00
2022-09-12T17:44:00.574Z,0.00
2022-09-12T17:45:00.558Z,0.00
2022-09-12T17:46:00.589Z,0.00
2022-09-12T17:47:00.540Z,0.00
2022-09-12T17:48:00.528Z,0.00
2022-09-12T17:49:00.535Z,0.00
2022-09-12T17:50:27.455Z,0.00
2022-09-12T17:51:00.497Z,0.00
2022-09-12T17:52:00.488Z,0.00
2022-09-12T17:53:00.482Z,0.00
2022-09-12T17:54:00.496Z,0.00
2022-09-12T17:55:00.463Z,0.00
2022-09-12T17:56:00.457Z,0.00
2022-09-12T17:57:00.440Z,0.00
2022-09-12T17:58:00.467Z,0.00
2022-09-12T17:59:00.429Z,0.00
2022-09-12T18:00:00.441Z,0.00
2022-09-12T18:01:00.410Z,0.00
2022-09-12T18:02:00.479Z,0.00
2022-09-12T18:03:00.468Z,0.00
2022-09-12T18:04:00.374Z,0.00
2022-09-12T18:05:00.396Z,0.00
2022-09-12T18:06:00.352Z,0.00
2022-09-12T18:07:00.420Z,0.00
2022-09-12T18:08:00.338Z,0.00
2022-09-12T18:09:00.492Z,0.00
2022-09-12T18:10:00.318Z,0.00
2022-09-12T18:11:00.327Z,0.00
2022-09-12T18:12:00.298Z,0.00
2022-09-12T18:13:00.289Z,0.00
2022-09-12T18:14:00.277Z,0.00
2022-09-12T18:15:00.282Z,0.00
2022-09-12T18:16:01.186Z,0.00
2022-09-12T18:17:00.287Z,0.00
2022-09-12T18:18:00.240Z,0.00
2022-09-12T18:19:00.314Z,0.00
2022-09-12T18:20:00.228Z,0.00
2022-09-12T18:21:00.213Z,0.00
2022-09-12T18:22:00.200Z,0.00
2022-09-12T18:23:00.218Z,0.00
2022-09-12T18:24:00.180Z,0.00
2022-09-12T18:25:00.204Z,0.00
2022-09-12T18:26:00.161Z,0.00
2022-09-12T18:27:00.154Z,0.00
2022-09-12T18:28:00.141Z,0.00
2022-09-12T18:29:00.134Z,0.00
2022-09-12T18:30:20.184Z,0.00
2022-09-12T18:31:00.161Z,0.00
2022-09-12T18:32:00.109Z,0.00
2022-09-12T18:33:00.099Z,0.00
2022-09-12T18:34:00.111Z,0.00
2022-09-12T18:35:00.220Z,0.00
2022-09-12T18:36:00.062Z,0.00
2022-09-12T18:37:00.063Z,0.00
2022-09-12T18:38:00.042Z,0.00
2022-09-12T18:39:00.033Z,0.00
2022-09-12T18:40:00.150Z,0.00
2022-09-12T18:41:00.076Z,0.00
2022-09-12T18:42:00.000Z,0.00
2022-09-12T18:42:59.994Z,0.00
2022-09-12T18:44:00.000Z,0.00
2022-09-12T18:45:00.003Z,0.00
2022-09-12T18:46:00.172Z,0.00
2022-09-12T18:46:59.964Z,0.00
2022-09-12T18:47:59.951Z,0.00
2022-09-12T18:48:59.932Z,0.00
2022-09-12T18:49:59.924Z,0.00
2022-09-12T18:50:59.917Z,0.00
2022-09-12T18:52:00.063Z,0.00
2022-09-12T18:53:00.125Z,0.00
2022-09-12T18:53:59.879Z,0.00
2022-09-12T18:54:59.887Z,0.00
2022-09-12T18:55:59.858Z,0.00
2022-09-12T18:56:59.853Z,0.00